Time;durP1;ratioP1;P1;durP2;ratioP2;P2;SDS_P1;SDS_P2;PMS_P1;PMS_P2;Temp;Humidity;BMP_temperature;BMP_pressure;BME280_temperature;BME280_humidity;BME280_pressure;Samples;Min_cycle;Max_cycle;Signal;HPM_P1;HPM_P2
2022/01/27 00:05:12;;;;;;;54.50;27.63;;;5.20;99.90;;;;;;5116149;28;20062;-75
2022/01/27 00:07:37;;;;;;;46.85;27.40;;;5.20;99.90;;;;;;5116072;28;20020;-76
2022/01/27 00:10:16;;;;;;;51.97;29.83;;;5.30;99.90;;;;;;5115428;28;20035;-76
2022/01/27 00:12:43;;;;;;;54.35;29.63;;;5.40;99.90;;;;;;5115624;28;20179;-75
2022/01/27 00:15:12;;;;;;;56.88;30.08;;;5.30;99.90;;;;;;5114030;28;20412;-76
2022/01/27 00:17:43;;;;;;;53.25;28.02;;;5.30;99.90;;;;;;5115277;28;20388;-76
2022/01/27 00:20:10;;;;;;;53.67;28.13;;;5.30;99.90;;;;;;5115512;28;20023;-76
2022/01/27 00:22:35;;;;;;;48.75;27.48;;;5.40;99.90;;;;;;5115075;28;20020;-76
2022/01/27 00:25:03;;;;;;;48.47;26.63;;;5.40;99.90;;;;;;5115364;28;20030;-75
2022/01/27 00:27:29;;;;;;;50.33;28.27;;;5.40;99.90;;;;;;5115350;28;20019;-76
2022/01/27 00:29:54;;;;;;;54.88;32.15;;;5.40;99.90;;;;;;5115003;28;20028;-75
2022/01/27 00:32:20;;;;;;;60.90;39.22;;;5.30;99.90;;;;;;5115149;28;20080;-76
2022/01/27 00:34:46;;;;;;;50.33;29.20;;;5.30;99.90;;;;;;5114961;28;20055;-76
2022/01/27 00:37:12;;;;;;;57.58;29.10;;;5.30;99.90;;;;;;5114008;28;20023;-75
2022/01/27 00:39:37;;;;;;;59.72;40.53;;;5.30;99.90;;;;;;5115083;28;20026;-76
2022/01/27 00:42:03;;;;;;;52.55;33.45;;;5.30;99.90;;;;;;5114785;28;20031;-75
2022/01/27 00:44:29;;;;;;;53.38;25.92;;;5.20;99.90;;;;;;5115308;28;20024;-76
2022/01/27 00:46:55;;;;;;;57.03;31.73;;;5.20;99.90;;;;;;5115002;28;20388;-75
2022/01/27 00:49:20;;;;;;;51.17;32.05;;;5.20;99.90;;;;;;5114672;27;20024;-76
2022/01/27 00:51:47;;;;;;;50.30;26.58;;;5.10;99.90;;;;;;5113266;28;20027;-76
2022/01/27 00:54:20;;;;;;;48.20;26.27;;;5.20;99.90;;;;;;5114502;28;20035;-76
2022/01/27 00:56:53;;;;;;;55.22;28.17;;;5.20;99.90;;;;;;5114866;28;20024;-75
2022/01/27 00:59:57;;;;;;;47.05;24.63;;;5.10;99.90;;;;;;5114518;28;20015;-75
2022/01/27 01:03:21;;;;;;;45.80;23.95;;;5.00;99.90;;;;;;5111015;28;20047;-75
2022/01/27 01:07:44;;;;;;;49.85;25.33;;;5.00;99.90;;;;;;5114713;27;20031;-75
2022/01/27 01:15:41;;;;;;;50.42;25.63;;;4.90;99.90;;;;;;5114773;28;20030;-76
2022/01/27 01:18:25;;;;;;;60.50;27.50;;;4.70;99.90;;;;;;5114136;28;20023;-75
2022/01/27 01:32:11;;;;;;;45.88;23.88;;;4.70;99.90;;;;;;5113878;28;20396;-75
2022/01/27 01:34:43;;;;;;;51.97;25.42;;;4.70;99.90;;;;;;5114214;28;20069;-76
2022/01/27 01:37:09;;;;;;;45.38;24.20;;;4.60;99.90;;;;;;5114480;28;20020;-76
2022/01/27 01:39:36;;;;;;;46.58;23.55;;;4.60;99.90;;;;;;5113875;28;20016;-76
2022/01/27 01:42:06;;;;;;;48.72;23.20;;;4.70;99.90;;;;;;5113795;28;20106;-75
2022/01/27 01:44:33;;;;;;;44.67;22.98;;;4.70;99.90;;;;;;5114668;28;20015;-76
2022/01/27 01:46:59;;;;;;;44.95;22.40;;;4.70;99.90;;;;;;5113871;28;20477;-76
2022/01/27 01:49:26;;;;;;;50.15;24.80;;;4.60;99.90;;;;;;5113721;28;20023;-76
2022/01/27 01:51:57;;;;;;;46.55;23.17;;;4.50;99.90;;;;;;5113636;28;20106;-75
2022/01/27 01:54:23;;;;;;;45.35;24.20;;;4.50;99.90;;;;;;5113590;28;20515;-75
2022/01/27 01:56:50;;;;;;;47.63;24.33;;;4.50;99.90;;;;;;5113681;28;20024;-75
2022/01/27 01:59:15;;;;;;;43.05;21.90;;;4.50;99.90;;;;;;5112376;28;20028;-76
2022/01/27 02:01:42;;;;;;;46.45;22.88;;;4.50;99.90;;;;;;5113331;28;20115;-75
2022/01/27 02:04:09;;;;;;;48.47;23.48;;;4.50;99.90;;;;;;5113626;28;20488;-76
2022/01/27 02:06:51;;;;;;;46.42;22.73;;;4.50;99.90;;;;;;5113525;28;20103;-76
2022/01/27 02:19:58;;;;;;;49.53;24.23;;;4.30;99.90;;;;;;5113714;28;20023;-75
2022/01/27 02:22:25;;;;;;;48.72;24.13;;;4.30;99.90;;;;;;5111868;28;20118;-76
2022/01/27 02:24:51;;;;;;;45.50;23.88;;;4.20;99.90;;;;;;5113407;28;20096;-75
2022/01/27 02:27:18;;;;;;;45.30;23.23;;;4.20;99.90;;;;;;5112080;28;20024;-76
2022/01/27 02:29:44;;;;;;;49.53;23.17;;;4.20;99.90;;;;;;5113358;28;20039;-76
2022/01/27 02:32:11;;;;;;;47.38;22.77;;;4.30;99.90;;;;;;5113273;28;20031;-76
2022/01/27 02:34:37;;;;;;;42.25;22.45;;;4.30;99.90;;;;;;5113298;28;20023;-76
2022/01/27 02:37:03;;;;;;;47.15;23.45;;;4.40;99.90;;;;;;5111962;28;20127;-76
2022/01/27 02:39:29;;;;;;;39.22;20.77;;;4.40;99.90;;;;;;5113266;28;20024;-76
2022/01/27 02:41:55;;;;;;;43.13;21.40;;;4.50;99.90;;;;;;5111897;28;20031;-76
2022/01/27 02:44:21;;;;;;;41.03;22.30;;;4.50;99.90;;;;;;5113185;28;20122;-76
2022/01/27 02:46:50;;;;;;;37.80;18.92;;;4.50;99.90;;;;;;5113439;28;20385;-76
2022/01/27 02:49:16;;;;;;;42.47;23.00;;;4.50;99.90;;;;;;5113129;28;20027;-76
2022/01/27 02:51:41;;;;;;;42.95;24.65;;;4.50;99.90;;;;;;5113056;28;20024;-76
2022/01/27 02:54:07;;;;;;;45.33;22.80;;;4.40;99.90;;;;;;5113296;28;20093;-76
2022/01/27 02:56:33;;;;;;;47.53;23.40;;;4.40;99.90;;;;;;5113080;28;20493;-76
2022/01/27 02:58:59;;;;;;;43.45;21.83;;;4.40;99.90;;;;;;5113550;28;20057;-76
2022/01/27 03:01:24;;;;;;;47.28;24.30;;;4.30;99.90;;;;;;5117103;28;20020;-76
2022/01/27 03:03:50;;;;;;;46.35;22.58;;;4.30;99.90;;;;;;5116601;28;20508;-76
2022/01/27 03:06:16;;;;;;;46.45;22.70;;;4.30;99.90;;;;;;5116687;28;20496;-76
2022/01/27 03:08:41;;;;;;;44.65;22.08;;;4.40;99.90;;;;;;5115317;28;20476;-75
2022/01/27 03:11:15;;;;;;;41.00;20.95;;;4.30;99.90;;;;;;5116867;28;20020;-75
2022/01/27 03:13:41;;;;;;;43.28;21.17;;;4.30;99.90;;;;;;5116880;28;20027;-76
2022/01/27 03:16:08;;;;;;;42.10;21.33;;;4.30;99.90;;;;;;5116467;28;20438;-75
2022/01/27 03:18:34;;;;;;;42.55;21.42;;;4.30;99.90;;;;;;5116446;28;20012;-76
2022/01/27 03:21:00;;;;;;;42.33;22.40;;;4.30;99.90;;;;;;5116454;28;20051;-76
2022/01/27 03:23:26;;;;;;;44.70;21.73;;;4.30;99.90;;;;;;5116339;28;20015;-75
2022/01/27 03:25:51;;;;;;;43.17;21.25;;;4.30;99.90;;;;;;5116355;28;20031;-76
2022/01/27 03:28:19;;;;;;;39.83;20.88;;;4.30;99.90;;;;;;5116537;28;20140;-75
2022/01/27 03:30:45;;;;;;;44.08;21.15;;;4.20;99.90;;;;;;5116228;28;20023;-75
2022/01/27 03:33:10;;;;;;;42.50;22.08;;;4.20;99.90;;;;;;5116090;28;20420;-76
2022/01/27 03:35:36;;;;;;;39.55;21.60;;;4.20;99.90;;;;;;5116396;28;20059;-75
2022/01/27 03:38:02;;;;;;;43.15;22.25;;;4.20;99.90;;;;;;5116083;28;20044;-75
2022/01/27 03:40:27;;;;;;;45.83;22.35;;;4.30;99.90;;;;;;5116057;28;20023;-75
2022/01/27 03:43:05;;;;;;;47.47;23.95;;;4.30;99.90;;;;;;5116216;28;20381;-75
2022/01/27 03:45:31;;;;;;;39.65;21.25;;;4.20;99.90;;;;;;5116240;28;20024;-76
2022/01/27 03:47:57;;;;;;;44.97;22.67;;;4.20;99.90;;;;;;5114610;28;20016;-76
2022/01/27 03:50:23;;;;;;;44.20;22.27;;;4.20;99.90;;;;;;5116444;28;20027;-76
2022/01/27 03:52:48;;;;;;;43.35;21.77;;;4.30;99.90;;;;;;5114432;28;20026;-76
2022/01/27 03:55:14;;;;;;;42.72;21.88;;;4.20;99.90;;;;;;5115642;28;20068;-76
2022/01/27 03:57:40;;;;;;;46.20;23.88;;;4.10;99.90;;;;;;5115972;28;20043;-76
2022/01/27 04:00:08;;;;;;;45.95;22.67;;;4.10;99.90;;;;;;5115610;28;20039;-76
2022/01/27 04:02:37;;;;;;;40.05;19.45;;;4.20;99.90;;;;;;5115403;28;20382;-75
2022/01/27 04:05:03;;;;;;;35.30;19.52;;;4.20;99.90;;;;;;5114296;28;20221;-76
2022/01/27 04:07:28;;;;;;;37.78;20.55;;;4.20;99.90;;;;;;5115501;28;20147;-76
2022/01/27 04:09:54;;;;;;;42.75;20.70;;;4.20;99.90;;;;;;5115401;28;20035;-76
2022/01/27 04:12:19;;;;;;;41.85;21.20;;;4.20;99.90;;;;;;5115309;28;20028;-76
2022/01/27 04:14:45;;;;;;;43.08;21.30;;;4.20;99.90;;;;;;5115353;28;20027;-76
2022/01/27 04:17:11;;;;;;;38.75;20.70;;;4.10;99.90;;;;;;5115301;28;20079;-75
2022/01/27 04:19:37;;;;;;;38.20;19.05;;;4.10;99.90;;;;;;5115288;28;20389;-75
2022/01/27 04:22:03;;;;;;;44.95;23.15;;;4.10;99.90;;;;;;5115171;28;20039;-76
2022/01/27 04:24:30;;;;;;;44.40;21.13;;;4.10;99.90;;;;;;5115213;28;20055;-76
2022/01/27 04:27:04;;;;;;;44.20;21.75;;;4.10;99.90;;;;;;5115108;28;20039;-76
2022/01/27 04:29:33;;;;;;;38.53;20.30;;;4.10;99.90;;;;;;5115397;28;20069;-76
2022/01/27 04:32:01;;;;;;;44.15;22.00;;;4.00;99.90;;;;;;5113667;28;20023;-76
2022/01/27 04:34:27;;;;;;;42.58;21.17;;;4.00;99.90;;;;;;5115004;28;20393;-75
2022/01/27 04:36:55;;;;;;;43.65;21.58;;;4.00;99.90;;;;;;5115162;28;20072;-75
2022/01/27 04:39:38;;;;;;;38.75;20.17;;;4.10;99.90;;;;;;5114896;28;20028;-75
2022/01/27 04:42:11;;;;;;;39.40;20.02;;;4.10;99.90;;;;;;5115424;28;20088;-76
2022/01/27 04:45:12;;;;;;;40.00;20.90;;;4.10;99.90;;;;;;5115401;28;20031;-76
2022/01/27 04:47:33;;;;;;;39.55;19.85;;;4.10;99.90;;;;;;5112367;28;20032;-75
2022/01/27 04:49:59;;;;;;;41.70;21.55;;;4.10;99.90;;;;;;5114755;28;20027;-75
2022/01/27 04:52:28;;;;;;;39.00;21.40;;;4.00;99.90;;;;;;5114591;28;20491;-75
2022/01/27 04:57:19;;;;;;;45.03;22.90;;;4.00;99.90;;;;;;5115134;28;20024;-75
2022/01/27 04:59:45;;;;;;;39.75;20.58;;;4.00;99.90;;;;;;5114766;28;20020;-76
2022/01/27 05:02:31;;;;;;;40.28;21.73;;;4.00;99.90;;;;;;5114465;28;20517;-76
2022/01/27 05:04:57;;;;;;;40.55;22.10;;;4.10;99.90;;;;;;5114757;28;20024;-75
2022/01/27 05:07:22;;;;;;;41.60;21.10;;;4.10;99.90;;;;;;5114601;28;20027;-76
2022/01/27 05:09:56;;;;;;;37.45;20.27;;;4.10;99.90;;;;;;5114569;28;20031;-75
2022/01/27 05:12:41;;;;;;;45.03;21.35;;;4.00;99.90;;;;;;5114536;28;20103;-76
2022/01/27 05:15:08;;;;;;;38.10;19.38;;;4.10;99.90;;;;;;5114557;28;20026;-76
2022/01/27 05:17:33;;;;;;;39.25;20.08;;;4.10;99.90;;;;;;5114476;28;20051;-75
2022/01/27 05:19:59;;;;;;;39.53;19.65;;;4.10;99.90;;;;;;5114454;28;20108;-76
2022/01/27 05:22:24;;;;;;;39.45;20.25;;;4.20;99.90;;;;;;5113974;28;20119;-76
2022/01/27 05:24:50;;;;;;;37.67;20.27;;;4.10;99.90;;;;;;5114125;28;20059;-75
2022/01/27 05:27:17;;;;;;;40.72;20.27;;;4.20;99.90;;;;;;5114549;28;20019;-76
2022/01/27 05:29:43;;;;;;;39.88;19.67;;;4.20;99.90;;;;;;5114008;28;20034;-76
2022/01/27 05:32:08;;;;;;;37.83;19.92;;;4.20;99.90;;;;;;5114137;28;20124;-75
2022/01/27 05:34:34;;;;;;;37.92;19.63;;;4.20;99.90;;;;;;5113899;28;20041;-75
2022/01/27 05:37:00;;;;;;;35.50;18.70;;;4.30;99.90;;;;;;5114475;28;20034;-76
2022/01/27 05:39:26;;;;;;;41.28;20.60;;;4.30;99.90;;;;;;5113871;28;20028;-76
2022/01/27 05:41:51;;;;;;;34.35;17.98;;;4.40;99.90;;;;;;5113807;28;20024;-76
2022/01/27 05:44:17;;;;;;;38.45;20.23;;;4.30;99.90;;;;;;5113851;28;20024;-76
2022/01/27 05:46:43;;;;;;;36.53;19.20;;;4.30;99.90;;;;;;5113762;28;20054;-75
2022/01/27 05:49:08;;;;;;;44.22;22.17;;;4.30;99.90;;;;;;5113723;28;20400;-75
2022/01/27 05:51:34;;;;;;;37.80;20.25;;;4.20;99.90;;;;;;5113862;28;20033;-75
2022/01/27 05:54:00;;;;;;;43.60;20.35;;;4.30;99.90;;;;;;5113851;28;20076;-76
2022/01/27 05:56:26;;;;;;;37.78;19.25;;;4.30;99.90;;;;;;5113725;28;20012;-76
2022/01/27 05:58:51;;;;;;;39.55;18.90;;;4.30;99.90;;;;;;5112381;28;20106;-75
2022/01/27 06:01:17;;;;;;;39.88;19.65;;;4.30;99.90;;;;;;5114187;28;20477;-76
2022/01/27 06:03:43;;;;;;;45.10;21.27;;;4.10;99.90;;;;;;5113170;28;20091;-76
2022/01/27 06:06:08;;;;;;;39.80;21.50;;;4.00;99.90;;;;;;5114091;28;20023;-76
2022/01/27 06:08:34;;;;;;;42.22;20.92;;;4.10;99.90;;;;;;5113761;28;20063;-76
2022/01/27 06:11:00;;;;;;;41.83;21.17;;;4.20;99.90;;;;;;5113798;28;20424;-75
2022/01/27 06:13:27;;;;;;;43.58;21.50;;;4.10;99.90;;;;;;5112114;28;20069;-76
2022/01/27 06:15:53;;;;;;;45.85;22.27;;;4.00;99.90;;;;;;5113731;28;20025;-75
2022/01/27 06:18:19;;;;;;;44.03;23.48;;;3.90;99.90;;;;;;5113482;28;20389;-75
2022/01/27 06:20:45;;;;;;;48.25;24.30;;;4.00;99.90;;;;;;5113460;28;20020;-76
2022/01/27 06:23:12;;;;;;;47.08;23.20;;;4.00;99.90;;;;;;5113474;28;20016;-76
2022/01/27 06:25:39;;;;;;;58.00;26.45;;;4.00;99.90;;;;;;5113385;28;20050;-75
2022/01/27 06:28:05;;;;;;;51.83;25.33;;;4.00;99.90;;;;;;5112104;28;20035;-75
2022/01/27 06:30:34;;;;;;;51.72;26.13;;;4.00;99.90;;;;;;5113318;28;20145;-76
2022/01/27 06:33:05;;;;;;;54.95;27.55;;;4.20;99.90;;;;;;5113218;28;20028;-76
2022/01/27 06:35:32;;;;;;;57.47;25.00;;;4.20;99.90;;;;;;5116616;28;20020;-76
2022/01/27 06:37:57;;;;;;;47.88;25.92;;;4.30;99.90;;;;;;5117239;28;20022;-76
2022/01/27 06:40:23;;;;;;;53.22;24.67;;;4.30;99.90;;;;;;5117512;28;20027;-75
2022/01/27 06:42:49;;;;;;;51.33;25.27;;;4.30;99.90;;;;;;5117175;28;20023;-75
2022/01/27 06:45:15;;;;;;;52.95;26.33;;;4.40;99.90;;;;;;5117165;28;20023;-76
2022/01/27 06:47:40;;;;;;;48.65;25.05;;;4.30;99.90;;;;;;5117699;28;20019;-76
2022/01/27 06:50:07;;;;;;;49.42;24.23;;;4.40;99.90;;;;;;5117084;28;20093;-76
2022/01/27 06:52:33;;;;;;;54.78;27.02;;;4.40;99.90;;;;;;5115615;28;20118;-76
2022/01/27 06:55:01;;;;;;;59.95;29.23;;;4.40;99.90;;;;;;5117164;28;20019;-76
2022/01/27 06:57:26;;;;;;;50.20;25.42;;;4.40;99.90;;;;;;5116911;28;20030;-75
2022/01/27 06:59:52;;;;;;;52.97;26.05;;;4.40;99.90;;;;;;5115545;28;20500;-76
2022/01/27 07:02:19;;;;;;;54.47;26.27;;;4.40;99.90;;;;;;5116571;28;20122;-76
2022/01/27 07:04:44;;;;;;;50.20;24.17;;;4.30;99.90;;;;;;5116756;28;20032;-76
2022/01/27 07:07:10;;;;;;;55.03;25.63;;;4.40;99.90;;;;;;5117014;28;20103;-75
2022/01/27 07:09:36;;;;;;;48.25;24.27;;;4.40;99.90;;;;;;5116663;27;20069;-75
2022/01/27 07:12:02;;;;;;;52.88;25.38;;;4.50;99.90;;;;;;5115057;28;20493;-76
2022/01/27 07:14:30;;;;;;;58.55;26.33;;;4.50;99.90;;;;;;5114879;28;20072;-76
2022/01/27 07:16:57;;;;;;;48.63;24.70;;;4.50;99.90;;;;;;5115505;28;20094;-76
2022/01/27 07:19:22;;;;;;;53.60;26.55;;;4.50;99.90;;;;;;5116333;28;20023;-75
2022/01/27 07:21:48;;;;;;;51.55;25.60;;;4.50;99.90;;;;;;5116171;28;20028;-76
2022/01/27 07:24:14;;;;;;;53.20;25.75;;;4.50;99.90;;;;;;5115985;28;20023;-76
2022/01/27 07:26:40;;;;;;;50.15;25.00;;;4.40;99.90;;;;;;5115946;28;20069;-76
2022/01/27 07:29:05;;;;;;;53.95;26.10;;;4.40;99.90;;;;;;5115994;28;20030;-76
2022/01/27 07:31:32;;;;;;;52.28;24.38;;;4.40;99.90;;;;;;5116131;28;20058;-76
2022/01/27 07:33:58;;;;;;;54.38;28.75;;;4.40;99.90;;;;;;5116445;28;20024;-76
2022/01/27 07:36:24;;;;;;;57.33;28.48;;;4.50;99.90;;;;;;5116655;28;20411;-76
2022/01/27 07:38:50;;;;;;;63.95;31.33;;;4.50;99.90;;;;;;5116057;28;20024;-76
2022/01/27 07:41:17;;;;;;;58.88;31.23;;;4.40;99.90;;;;;;5116029;28;20012;-76
2022/01/27 07:43:44;;;;;;;80.22;39.72;;;4.50;99.90;;;;;;5115882;28;20031;-76
2022/01/27 07:46:13;;;;;;;64.15;32.40;;;4.50;99.90;;;;;;5115905;28;20098;-76
2022/01/27 07:48:40;;;;;;;61.50;31.10;;;4.60;99.90;;;;;;5115903;28;20031;-76
2022/01/27 07:51:08;;;;;;;107.15;52.75;;;4.60;99.90;;;;;;5115900;28;20102;-76
2022/01/27 07:53:34;;;;;;;74.13;37.70;;;4.60;99.90;;;;;;5115671;28;20059;-76
2022/01/27 07:56:02;;;;;;;54.38;26.75;;;4.60;99.90;;;;;;5116042;28;20081;-76
2022/01/27 07:58:31;;;;;;;56.92;29.42;;;4.60;99.90;;;;;;5115713;28;20116;-77
2022/01/27 08:00:58;;;;;;;58.57;30.03;;;4.60;99.90;;;;;;5109024;28;20016;-76
2022/01/27 08:03:24;;;;;;;132.40;61.78;;;4.70;99.90;;;;;;5105956;28;20384;-76
2022/01/27 08:05:51;;;;;;;106.78;63.90;;;4.70;99.90;;;;;;5115536;28;20566;-77
2022/01/27 08:08:16;;;;;;;64.20;35.85;;;4.60;99.90;;;;;;5109404;28;20405;-76
2022/01/27 08:10:44;;;;;;;80.93;48.75;;;4.60;99.90;;;;;;5095328;28;20030;-74
2022/01/27 08:13:10;;;;;;;66.35;31.30;;;4.60;99.90;;;;;;5104923;28;20024;-75
2022/01/27 08:15:36;;;;;;;49.35;25.63;;;4.70;99.90;;;;;;5104080;28;20497;-74
2022/01/27 08:18:03;;;;;;;59.33;35.78;;;4.70;99.90;;;;;;5107487;28;20016;-77
2022/01/27 08:20:30;;;;;;;53.40;25.70;;;4.70;99.90;;;;;;5115587;28;20020;-76
2022/01/27 08:22:56;;;;;;;53.42;27.38;;;4.70;99.90;;;;;;5107499;28;20035;-75
2022/01/27 08:25:23;;;;;;;64.70;32.83;;;4.70;99.90;;;;;;5094757;28;20397;-76
2022/01/27 08:27:53;;;;;;;65.00;35.88;;;4.70;99.90;;;;;;5093032;28;20489;-76
2022/01/27 08:30:21;;;;;;;101.57;54.90;;;4.70;99.90;;;;;;5094977;28;20073;-74
2022/01/27 08:33:04;;;;;;;70.05;36.95;;;4.70;99.90;;;;;;5092682;28;20568;-76
2022/01/27 08:35:31;;;;;;;72.22;41.25;;;4.70;99.90;;;;;;5094720;28;20489;-76
2022/01/27 08:37:56;;;;;;;65.80;32.25;;;4.80;99.90;;;;;;5094472;28;20031;-75
2022/01/27 08:40:22;;;;;;;61.38;30.55;;;4.80;99.90;;;;;;5102107;28;20028;-79
2022/01/27 08:42:48;;;;;;;73.72;36.22;;;4.80;99.90;;;;;;5098459;28;20496;-78
2022/01/27 08:45:16;;;;;;;56.78;26.42;;;4.90;99.90;;;;;;5104608;28;20023;-77
2022/01/27 08:47:43;;;;;;;56.72;27.55;;;4.80;99.90;;;;;;5112767;28;20027;-75
2022/01/27 08:50:11;;;;;;;54.85;28.17;;;4.80;99.90;;;;;;5098041;28;20063;-75
2022/01/27 08:52:37;;;;;;;54.20;27.92;;;4.90;99.90;;;;;;5102748;28;20028;-76
2022/01/27 08:55:04;;;;;;;57.25;28.02;;;4.90;99.90;;;;;;5094146;28;20024;-77
2022/01/27 08:57:31;;;;;;;52.95;27.35;;;4.80;99.90;;;;;;5099597;28;20073;-76
2022/01/27 08:59:57;;;;;;;51.50;28.30;;;4.90;99.90;;;;;;5096550;28;20024;-76
2022/01/27 09:02:22;;;;;;;62.55;29.63;;;4.90;99.90;;;;;;5093799;28;20044;-76
2022/01/27 09:04:49;;;;;;;59.80;29.58;;;4.90;99.90;;;;;;5094037;28;20465;-74
2022/01/27 09:07:15;;;;;;;59.63;30.17;;;4.90;99.90;;;;;;5094256;28;20028;-74
2022/01/27 09:09:42;;;;;;;53.40;27.98;;;4.90;99.90;;;;;;5095863;28;20111;-75
2022/01/27 09:12:09;;;;;;;59.22;29.95;;;4.90;99.90;;;;;;5094099;28;20027;-77
2022/01/27 09:14:35;;;;;;;62.55;33.20;;;5.00;99.90;;;;;;5094887;28;20024;-76
2022/01/27 09:17:00;;;;;;;55.45;28.25;;;5.10;99.90;;;;;;5093816;28;20541;-76
2022/01/27 09:19:27;;;;;;;57.05;29.92;;;5.10;99.90;;;;;;5106021;28;20023;-75
2022/01/27 09:21:54;;;;;;;58.60;27.23;;;5.10;99.90;;;;;;5113334;28;20057;-75
2022/01/27 09:24:27;;;;;;;56.08;28.13;;;5.10;99.90;;;;;;5095233;28;20028;-75
2022/01/27 09:26:59;;;;;;;57.92;27.25;;;5.20;99.90;;;;;;5091787;28;20032;-75
2022/01/27 09:29:26;;;;;;;58.25;28.88;;;5.20;99.90;;;;;;5094752;28;20027;-75
2022/01/27 09:31:52;;;;;;;62.13;29.85;;;5.20;99.90;;;;;;5105090;28;20140;-75
2022/01/27 09:34:18;;;;;;;59.60;28.73;;;5.30;99.90;;;;;;5094754;28;20518;-75
2022/01/27 09:36:46;;;;;;;56.78;27.05;;;5.30;99.90;;;;;;5095647;28;20054;-75
2022/01/27 09:39:13;;;;;;;50.70;26.50;;;5.40;99.90;;;;;;5100795;28;20379;-78
2022/01/27 09:41:41;;;;;;;54.42;28.95;;;5.40;99.90;;;;;;5111929;28;20043;-75
2022/01/27 09:44:10;;;;;;;52.30;26.75;;;5.40;99.90;;;;;;5109692;28;20036;-76
2022/01/27 09:46:36;;;;;;;50.47;26.02;;;5.40;99.90;;;;;;5113249;28;20019;-75
2022/01/27 09:49:11;;;;;;;49.30;24.98;;;5.40;99.90;;;;;;5113765;28;20031;-77
2022/01/27 09:51:42;;;;;;;53.33;24.70;;;5.50;99.90;;;;;;5108707;28;20431;-77
2022/01/27 09:54:08;;;;;;;50.20;23.75;;;5.50;99.90;;;;;;5100060;28;20481;-76
2022/01/27 09:56:34;;;;;;;47.50;24.80;;;5.50;99.90;;;;;;5106553;28;20012;-77
2022/01/27 09:59:01;;;;;;;52.38;26.90;;;5.50;99.90;;;;;;5096351;28;20103;-75
2022/01/27 10:01:27;;;;;;;93.72;32.15;;;5.60;99.90;;;;;;5100920;28;20504;-78
2022/01/27 10:03:55;;;;;;;55.83;27.23;;;5.60;99.90;;;;;;5110464;28;20086;-77
2022/01/27 10:06:27;;;;;;;49.25;25.02;;;5.60;99.90;;;;;;5108612;28;20085;-78
2022/01/27 10:09:12;;;;;;;64.80;32.67;;;5.70;99.90;;;;;;5098001;28;20513;-77
2022/01/27 10:11:38;;;;;;;98.03;46.58;;;5.80;99.90;;;;;;5103576;28;20024;-77
2022/01/27 10:14:27;;;;;;;55.58;28.50;;;5.80;99.90;;;;;;5117736;27;20396;-77
2022/01/27 10:16:59;;;;;;;57.03;28.63;;;6.00;99.90;;;;;;5118038;28;20035;-76
2022/01/27 10:19:28;;;;;;;47.78;24.30;;;6.00;99.90;;;;;;5117898;28;20354;-76
2022/01/27 10:22:04;;;;;;;68.05;34.78;;;6.10;99.90;;;;;;5117558;28;20023;-76
2022/01/27 10:24:34;;;;;;;49.58;24.00;;;6.20;99.90;;;;;;5104805;28;20511;-76
2022/01/27 10:32:50;;;;;;;90.15;46.60;;;6.40;99.90;;;;;;5117672;28;20115;-75
2022/01/27 10:35:19;;;;;;;53.70;28.58;;;6.30;99.90;;;;;;5107372;28;20023;-75
2022/01/27 10:38:05;;;;;;;46.60;25.48;;;6.40;99.90;;;;;;5115942;28;20405;-75
2022/01/27 10:40:43;;;;;;;47.03;22.65;;;6.40;99.90;;;;;;5114141;28;20083;-75
2022/01/27 10:43:16;;;;;;;42.55;22.33;;;6.50;99.90;;;;;;5105380;28;20484;-77
2022/01/27 10:46:26;;;;;;;47.53;24.67;;;6.50;99.90;;;;;;5112434;28;20024;-74
2022/01/27 10:49:08;;;;;;;46.90;23.05;;;6.60;99.90;;;;;;5106355;28;20028;-78
2022/01/27 10:51:47;;;;;;;39.95;22.65;;;6.80;99.90;;;;;;5115474;28;20051;-79
2022/01/27 10:54:21;;;;;;;49.50;25.42;;;6.90;99.90;;;;;;5097113;28;20095;-76
2022/01/27 10:56:48;;;;;;;50.30;24.27;;;6.90;99.90;;;;;;5095006;28;20508;-75
2022/01/27 10:59:17;;;;;;;49.67;25.17;;;7.00;99.90;;;;;;5096512;28;20496;-75
2022/01/27 11:01:44;;;;;;;40.65;22.63;;;7.00;99.90;;;;;;5096253;28;20020;-77
2022/01/27 11:04:12;;;;;;;42.67;21.88;;;7.00;99.90;;;;;;5101843;28;20067;-73
2022/01/27 11:06:52;;;;;;;42.25;23.38;;;7.00;99.90;;;;;;5101079;28;20024;-77
2022/01/27 11:09:18;;;;;;;42.70;21.80;;;7.00;99.90;;;;;;5100243;28;20027;-79
2022/01/27 11:11:45;;;;;;;55.00;23.83;;;7.10;99.90;;;;;;5116870;28;20047;-76
2022/01/27 11:14:10;;;;;;;45.88;23.90;;;7.10;99.90;;;;;;5116608;28;20057;-75
2022/01/27 11:16:42;;;;;;;45.95;23.45;;;7.10;99.90;;;;;;5116204;28;20024;-77
2022/01/27 11:19:20;;;;;;;39.88;22.67;;;7.20;99.90;;;;;;5109982;28;20031;-78
2022/01/27 11:21:53;;;;;;;47.63;24.27;;;7.20;99.90;;;;;;5093968;28;20027;-75
2022/01/27 11:24:29;;;;;;;43.53;23.55;;;7.30;99.90;;;;;;5096048;28;20073;-76
2022/01/27 11:26:58;;;;;;;43.00;23.27;;;7.30;99.90;;;;;;5094453;28;20070;-76
2022/01/27 11:29:26;;;;;;;41.95;23.73;;;7.50;99.90;;;;;;5095792;28;20047;-76
2022/01/27 11:32:21;;;;;;;43.63;24.17;;;7.60;99.90;;;;;;5095828;28;20020;-75
2022/01/27 11:34:52;;;;;;;44.88;23.98;;;7.60;99.90;;;;;;5095250;28;20097;-77
2022/01/27 11:37:31;;;;;;;41.67;22.65;;;7.70;99.90;;;;;;5096290;28;20020;-76
2022/01/27 11:40:03;;;;;;;46.97;24.63;;;7.70;99.90;;;;;;5096294;28;20133;-74
2022/01/27 11:42:34;;;;;;;45.88;23.67;;;7.90;99.90;;;;;;5095984;28;20063;-78
2022/01/27 11:45:20;;;;;;;38.90;22.02;;;7.80;99.90;;;;;;5096157;28;20024;-74
2022/01/27 11:48:01;;;;;;;42.75;23.42;;;7.90;99.90;;;;;;5081267;28;20490;-75
2022/01/27 11:50:38;;;;;;;44.60;23.83;;;7.90;99.90;;;;;;5093952;28;20397;-77
2022/01/27 11:53:07;;;;;;;45.78;24.38;;;7.90;99.90;;;;;;5093847;28;20426;-76
2022/01/27 11:55:32;;;;;;;45.42;24.60;;;7.90;99.90;;;;;;5095344;28;20016;-75
2022/01/27 11:58:14;;;;;;;42.72;22.25;;;7.80;99.90;;;;;;5094055;28;20035;-75
2022/01/27 12:00:40;;;;;;;48.78;25.20;;;7.80;99.90;;;;;;5095942;28;20027;-74
2022/01/27 12:03:15;;;;;;;45.72;24.13;;;7.80;99.90;;;;;;5095017;28;20055;-76
2022/01/27 12:05:46;;;;;;;45.90;24.90;;;7.90;99.90;;;;;;5095314;28;20109;-76
2022/01/27 12:08:17;;;;;;;42.97;23.73;;;8.00;99.90;;;;;;5095531;28;20481;-75
2022/01/27 12:10:54;;;;;;;44.17;23.75;;;8.00;99.90;;;;;;5093810;28;20394;-74
2022/01/27 12:19:00;;;;;;;49.38;26.52;;;8.00;99.90;;;;;;5095754;28;20031;-77
2022/01/27 12:21:42;;;;;;;52.22;26.55;;;7.90;99.90;;;;;;5095232;28;20012;-76
2022/01/27 12:24:27;;;;;;;49.67;26.55;;;7.90;99.90;;;;;;5095182;28;20020;-77
2022/01/27 12:27:05;;;;;;;51.85;26.58;;;7.90;99.90;;;;;;5093206;28;20445;-76
2022/01/27 12:29:34;;;;;;;49.63;25.88;;;7.90;99.90;;;;;;5093155;28;20031;-75
2022/01/27 12:32:16;;;;;;;48.85;26.17;;;7.90;99.90;;;;;;5093521;28;20080;-75
2022/01/27 12:34:53;;;;;;;52.65;27.02;;;7.90;99.90;;;;;;5093080;28;20031;-78
2022/01/27 12:37:21;;;;;;;49.40;26.52;;;7.90;99.90;;;;;;5094639;28;20389;-74
2022/01/27 12:39:59;;;;;;;49.50;26.98;;;7.90;99.90;;;;;;5093235;28;20443;-76
2022/01/27 12:42:32;;;;;;;52.00;26.73;;;7.90;99.90;;;;;;5094856;28;20020;-76
2022/01/27 12:45:05;;;;;;;51.05;27.88;;;7.90;99.90;;;;;;5094830;28;20020;-78
2022/01/27 12:47:31;;;;;;;51.17;29.10;;;8.00;99.90;;;;;;5094440;28;20435;-76
2022/01/27 12:50:08;;;;;;;56.10;30.58;;;8.00;99.90;;;;;;5094595;28;20030;-76
2022/01/27 12:52:43;;;;;;;60.70;31.20;;;8.20;99.90;;;;;;5092683;28;20024;-76
2022/01/27 12:55:17;;;;;;;54.92;27.70;;;8.10;99.90;;;;;;5094217;28;20020;-75
2022/01/27 12:57:44;;;;;;;46.80;26.23;;;8.00;99.90;;;;;;5094550;28;20045;-77
2022/01/27 13:00:12;;;;;;;46.67;26.30;;;7.90;99.90;;;;;;5094147;28;20093;-76
2022/01/27 13:02:39;;;;;;;45.15;25.65;;;7.90;99.90;;;;;;5092635;28;20048;-74
2022/01/27 13:05:07;;;;;;;46.92;26.17;;;8.00;99.90;;;;;;5094371;28;20024;-74
2022/01/27 13:07:36;;;;;;;57.13;28.80;;;8.10;99.90;;;;;;5093250;28;20016;-75
2022/01/27 13:10:15;;;;;;;51.03;28.10;;;8.20;99.90;;;;;;5094027;28;20024;-76
2022/01/27 13:15:11;;;;;;;53.80;28.17;;;8.30;99.90;;;;;;5093902;28;20416;-74
2022/01/27 13:20:27;;;;;;;46.47;26.15;;;8.20;99.90;;;;;;5101376;28;20023;-76
2022/01/27 13:23:14;;;;;;;48.53;26.08;;;8.20;99.90;;;;;;5093487;28;20039;-75
2022/01/27 13:25:47;;;;;;;50.92;25.70;;;8.20;99.90;;;;;;5114712;28;20080;-76
2022/01/27 13:28:22;;;;;;;45.97;25.13;;;8.20;99.90;;;;;;5101449;28;20103;-76
2022/01/27 13:30:51;;;;;;;46.70;25.42;;;8.20;99.90;;;;;;5091599;28;20489;-75
2022/01/27 13:33:19;;;;;;;46.90;24.50;;;8.30;99.90;;;;;;5093238;28;20486;-76
2022/01/27 13:35:46;;;;;;;47.22;26.00;;;8.30;99.90;;;;;;5093543;28;20128;-76
2022/01/27 13:38:28;;;;;;;48.20;25.33;;;8.30;99.90;;;;;;5093371;28;20390;-76